createdAt,value
2019-05-22T00:00:38.266Z,100359.38
2019-05-22T00:03:10.889Z,100362.05
2019-05-22T00:05:38.802Z,100361.88
2019-05-22T00:08:11.082Z,100360.08
2019-05-22T00:10:41.038Z,100363.00
2019-05-22T00:13:16.372Z,100364.12
2019-05-22T00:15:48.895Z,100365.98
2019-05-22T00:18:18.518Z,100369.70
2019-05-22T00:20:50.087Z,100369.23
2019-05-22T00:23:23.134Z,100373.71
2019-05-22T00:25:56.748Z,100381.36
2019-05-22T00:28:26.661Z,100375.73
2019-05-22T00:30:56.511Z,100379.09
2019-05-22T00:33:28.046Z,100381.19
2019-05-22T00:35:56.243Z,100386.58
2019-05-22T00:38:25.703Z,100394.73
2019-05-22T00:41:02.010Z,100388.44
2019-05-22T00:43:31.552Z,100387.95
2019-05-22T00:46:11.572Z,100381.02
2019-05-22T00:48:36.614Z,100385.14
2019-05-22T00:51:30.720Z,100379.92
2019-05-22T00:54:10.068Z,100380.25
2019-05-22T00:56:50.568Z,100384.28
2019-05-22T00:59:26.200Z,100379.53
2019-05-22T01:02:01.024Z,100390.94
2019-05-22T01:04:35.318Z,100387.14
2019-05-22T01:07:06.816Z,100387.83
2019-05-22T01:09:40.620Z,100391.47
2019-05-22T01:12:12.701Z,100387.30
2019-05-22T01:14:50.974Z,100398.54
2019-05-22T01:17:22.095Z,100386.73
2019-05-22T01:19:59.183Z,100389.84
2019-05-22T01:22:29.094Z,100391.83
2019-05-22T01:24:59.102Z,100396.16
2019-05-22T01:27:30.309Z,100394.86
2019-05-22T01:30:01.214Z,100386.85
2019-05-22T01:32:35.880Z,100392.66
2019-05-22T01:35:08.323Z,100397.59
2019-05-22T01:37:39.378Z,100406.13
2019-05-22T01:40:13.796Z,100399.88
2019-05-22T01:42:52.131Z,100400.05
2019-05-22T01:45:30.491Z,100402.53
2019-05-22T01:48:04.874Z,100403.97
2019-05-22T01:50:41.869Z,100400.81
2019-05-22T01:53:13.354Z,100399.16
2019-05-22T01:55:52.644Z,100399.75
2019-05-22T01:58:24.098Z,100399.58
2019-05-22T02:00:58.389Z,100396.91
2019-05-22T02:03:29.131Z,100400.49
2019-05-22T02:06:00.098Z,100401.66
2019-05-22T02:08:33.326Z,100398.09
2019-05-22T02:11:02.847Z,100399.52
2019-05-22T02:13:32.011Z,100395.03
2019-05-22T02:16:12.122Z,100397.42
2019-05-22T02:18:42.584Z,100398.72
2019-05-22T02:21:14.051Z,100401.09
2019-05-22T02:23:45.141Z,100395.04
2019-05-22T02:26:20.003Z,100404.05
2019-05-22T02:28:53.617Z,100407.06
2019-05-22T02:31:21.348Z,100407.17
2019-05-22T02:33:55.406Z,100408.56
2019-05-22T02:36:24.376Z,100409.18
2019-05-22T02:38:58.391Z,100411.77
2019-05-22T02:41:32.401Z,100403.91
2019-05-22T02:44:02.848Z,100405.27
2019-05-22T02:46:33.153Z,100411.66
2019-05-22T02:49:03.072Z,100407.48
2019-05-22T02:51:34.020Z,100404.16
2019-05-22T02:54:04.573Z,100408.88
2019-05-22T02:56:36.913Z,100398.11
2019-05-22T02:59:07.449Z,100402.27
2019-05-22T03:01:44.941Z,100403.71
2019-05-22T03:04:16.602Z,100404.55
2019-05-22T03:06:48.130Z,100404.11
2019-05-22T03:09:22.268Z,100412.88
2019-05-22T03:11:55.908Z,100408.33
2019-05-22T03:14:29.748Z,100415.64
2019-05-22T03:17:03.794Z,100419.40
2019-05-22T03:19:38.066Z,100418.09
2019-05-22T03:22:20.899Z,100416.45
2019-05-22T03:24:50.962Z,100412.06
2019-05-22T03:27:21.643Z,100416.97
2019-05-22T03:29:53.442Z,100417.85
2019-05-22T03:32:26.537Z,100418.97
2019-05-22T03:34:56.647Z,100419.67
2019-05-22T03:37:35.047Z,100426.76
2019-05-22T03:40:04.962Z,100429.55
2019-05-22T03:42:36.766Z,100428.58
2019-05-22T03:45:08.046Z,100435.41
2019-05-22T03:47:37.980Z,100429.19
2019-05-22T03:50:11.478Z,100431.86
2019-05-22T03:52:42.560Z,100434.67
2019-05-22T03:55:15.082Z,100435.77
2019-05-22T03:57:44.272Z,100432.61
2019-05-22T04:00:16.140Z,100433.27
2019-05-22T04:02:51.841Z,100432.36
2019-05-22T04:05:20.362Z,100435.70
2019-05-22T04:07:49.294Z,100432.03
2019-05-22T04:10:20.638Z,100436.87
2019-05-22T04:12:49.950Z,100441.08
2019-05-22T04:15:19.314Z,100442.38
2019-05-22T04:17:48.920Z,100444.58
2019-05-22T04:20:17.197Z,100453.64
2019-05-22T04:22:52.972Z,100450.86
2019-05-22T04:25:25.591Z,100454.84
2019-05-22T04:27:56.050Z,100458.04
2019-05-22T04:30:26.480Z,100465.89
2019-05-22T04:32:56.332Z,100464.73
2019-05-22T04:35:24.749Z,100470.39
2019-05-22T04:37:56.922Z,100469.23
2019-05-22T04:40:58.569Z,100472.07
2019-05-22T04:43:30.050Z,100471.91
2019-05-22T04:46:01.163Z,100474.00
2019-05-22T04:48:31.597Z,100478.01
2019-05-22T04:51:07.908Z,100471.91
2019-05-22T04:53:37.182Z,100476.86
2019-05-22T04:56:08.653Z,100481.59
2019-05-22T04:58:38.259Z,100480.48
2019-05-22T05:01:07.360Z,100480.84
2019-05-22T05:03:39.874Z,100483.50
2019-05-22T05:06:09.102Z,100487.22
2019-05-22T05:08:38.551Z,100484.80
2019-05-22T05:11:13.549Z,100487.84
2019-05-22T05:13:58.656Z,100491.53
2019-05-22T05:16:36.017Z,100487.71
2019-05-22T05:19:06.560Z,100486.84
2019-05-22T05:21:36.277Z,100494.13
2019-05-22T05:24:05.200Z,100492.03
2019-05-22T05:26:34.521Z,100497.55
2019-05-22T05:29:04.956Z,100493.44
2019-05-22T05:31:38.177Z,100495.33
2019-05-22T05:34:18.601Z,100493.10
2019-05-22T05:36:48.930Z,100493.44
2019-05-22T05:39:35.669Z,100493.91
2019-05-22T05:42:06.474Z,100495.78
2019-05-22T05:44:42.388Z,100497.11
2019-05-22T05:47:13.608Z,100496.42
2019-05-22T05:49:42.364Z,100497.38
2019-05-22T05:52:17.547Z,100500.80
2019-05-22T05:54:46.818Z,100502.44
2019-05-22T05:57:54.237Z,100501.95
2019-05-22T06:00:38.145Z,100501.67
2019-05-22T06:03:29.689Z,100506.07
2019-05-22T06:06:02.243Z,100505.77
2019-05-22T06:08:33.823Z,100517.89
2019-05-22T06:11:30.382Z,100510.90
2019-05-22T06:14:00.703Z,100514.02
2019-05-22T06:17:03.338Z,100515.47
2019-05-22T06:19:38.602Z,100518.39
2019-05-22T06:22:11.056Z,100519.46
2019-05-22T06:25:02.542Z,100522.95
2019-05-22T06:27:35.963Z,100529.92
2019-05-22T06:30:07.659Z,100534.06
2019-05-22T06:33:01.745Z,100533.26
2019-05-22T06:35:37.366Z,100538.81
2019-05-22T06:38:43.749Z,100540.58
2019-05-22T06:41:14.991Z,100544.39
2019-05-22T06:44:24.252Z,100543.77
2019-05-22T06:46:56.218Z,100536.88
2019-05-22T06:49:39.125Z,100542.34
2019-05-22T06:52:08.134Z,100546.69
2019-05-22T06:54:40.645Z,100544.53
2019-05-22T06:57:13.258Z,100548.63
2019-05-22T06:59:43.910Z,100547.20
2019-05-22T07:02:15.419Z,100549.00
2019-05-22T07:04:47.333Z,100546.88
2019-05-22T07:07:19.230Z,100557.05
2019-05-22T07:09:48.677Z,100557.22
2019-05-22T07:12:18.484Z,100562.90
2019-05-22T07:15:19.598Z,100564.42
2019-05-22T07:17:53.761Z,100563.70
2019-05-22T07:20:25.145Z,100559.47
2019-05-22T07:22:54.773Z,100563.66
2019-05-22T07:25:36.084Z,100562.46
2019-05-22T07:28:06.936Z,100566.13
2019-05-22T07:30:42.038Z,100564.09
2019-05-22T07:33:12.807Z,100565.34
2019-05-22T07:35:56.731Z,100562.19
2019-05-22T07:38:15.297Z,100570.58
2019-05-22T07:40:49.659Z,100573.98
2019-05-22T07:43:26.780Z,100573.25
2019-05-22T07:46:00.959Z,100579.50
2019-05-22T07:48:30.211Z,100574.80
2019-05-22T07:51:00.581Z,100579.33
2019-05-22T07:53:32.990Z,100571.77
2019-05-22T07:56:08.944Z,100575.91
2019-05-22T07:58:45.572Z,100580.48
2019-05-22T08:01:16.375Z,100582.07
2019-05-22T08:03:47.493Z,100578.26
2019-05-22T08:06:17.832Z,100579.37
2019-05-22T08:08:53.900Z,100585.16
2019-05-22T08:11:21.098Z,100579.28
2019-05-22T08:13:52.732Z,100583.06
2019-05-22T08:16:21.150Z,100579.61
2019-05-22T08:18:52.008Z,100586.50
2019-05-22T08:21:23.374Z,100588.46
2019-05-22T08:23:50.493Z,100585.52
2019-05-22T08:26:21.030Z,100586.83
2019-05-22T08:28:50.184Z,100588.92
2019-05-22T08:31:21.702Z,100596.67
2019-05-22T08:33:52.395Z,100598.29
2019-05-22T08:36:20.708Z,100595.98
2019-05-22T08:38:55.412Z,100605.48
2019-05-22T08:41:26.272Z,100600.92
2019-05-22T08:44:15.380Z,100602.86
2019-05-22T08:46:35.230Z,100603.28
2019-05-22T08:49:06.027Z,100612.88
2019-05-22T08:51:38.185Z,100611.71
2019-05-22T08:54:07.295Z,100614.49
2019-05-22T08:56:38.722Z,100612.86
2019-05-22T08:59:18.962Z,100615.32
2019-05-22T09:01:38.677Z,100616.14
2019-05-22T09:04:08.304Z,100621.69
2019-05-22T09:06:39.037Z,100622.50
2019-05-22T09:09:11.182Z,100619.08
2019-05-22T09:11:43.344Z,100623.33
2019-05-22T09:14:17.051Z,100625.73
2019-05-22T09:16:47.071Z,100622.19
2019-05-22T09:19:16.901Z,100621.19
2019-05-22T09:21:47.442Z,100624.61
2019-05-22T09:24:19.276Z,100622.06
2019-05-22T09:26:49.185Z,100620.66
2019-05-22T09:29:21.045Z,100626.89
2019-05-22T09:31:49.995Z,100624.26
2019-05-22T09:34:20.975Z,100621.89
2019-05-22T09:36:50.716Z,100621.80
2019-05-22T09:39:21.441Z,100628.00
2019-05-22T09:41:52.976Z,100622.64
2019-05-22T09:44:22.182Z,100632.27
2019-05-22T09:46:53.859Z,100624.44
2019-05-22T09:49:23.994Z,100618.23
2019-05-22T09:51:52.632Z,100617.30
2019-05-22T09:54:26.029Z,100610.75
2019-05-22T09:57:00.038Z,100613.28
2019-05-22T09:59:28.727Z,100609.48
2019-05-22T10:01:59.046Z,100599.86
2019-05-22T10:04:30.610Z,100613.77
2019-05-22T10:07:06.899Z,100599.13
2019-05-22T10:09:36.455Z,100598.61
2019-05-22T10:12:06.027Z,100606.34
2019-05-22T10:14:37.906Z,100605.53
2019-05-22T10:17:10.086Z,100601.94
2019-05-22T10:19:39.124Z,100607.51
2019-05-22T10:22:09.093Z,100614.98
2019-05-22T10:24:37.067Z,100613.22
2019-05-22T10:27:08.350Z,100609.19
2019-05-22T10:29:37.225Z,100600.97
2019-05-22T10:32:07.112Z,100606.81
2019-05-22T10:34:36.726Z,100612.02
2019-05-22T10:37:07.292Z,100612.23
2019-05-22T10:39:36.133Z,100626.72
2019-05-22T10:42:05.331Z,100624.44
2019-05-22T10:44:39.810Z,100612.22
2019-05-22T10:47:12.971Z,100614.81
2019-05-22T10:49:43.199Z,100618.04
2019-05-22T10:52:15.259Z,100609.36
2019-05-22T10:54:43.211Z,100615.41
2019-05-22T10:57:13.883Z,100614.14
2019-05-22T10:59:43.259Z,100613.56
2019-05-22T11:02:11.761Z,100607.38
2019-05-22T11:04:40.533Z,100604.17
2019-05-22T11:07:09.089Z,100593.86
2019-05-22T11:09:38.230Z,100586.67
2019-05-22T11:12:08.457Z,100604.50
2019-05-22T11:14:38.975Z,100611.69
2019-05-22T11:17:06.148Z,100598.44
2019-05-22T11:19:34.997Z,100602.18
2019-05-22T11:22:02.799Z,100615.48
2019-05-22T11:24:32.893Z,100615.08
2019-05-22T11:27:00.622Z,100600.55
2019-05-22T11:29:29.729Z,100620.75
2019-05-22T11:31:57.711Z,100617.23
2019-05-22T11:34:27.785Z,100623.31
2019-05-22T11:37:01.989Z,100618.63
2019-05-22T11:39:39.332Z,100618.10
2019-05-22T11:42:04.852Z,100627.44
2019-05-22T11:44:29.832Z,100630.89
2019-05-22T11:47:04.649Z,100614.94
2019-05-22T11:49:34.964Z,100627.68
2019-05-22T11:52:08.414Z,100632.16
2019-05-22T11:54:38.586Z,100625.56
2019-05-22T11:57:16.005Z,100630.23
2019-05-22T11:59:49.884Z,100623.05
2019-05-22T12:02:20.070Z,100614.50
2019-05-22T12:04:52.086Z,100618.72
2019-05-22T12:07:21.950Z,100612.83
2019-05-22T12:10:01.376Z,100614.39
2019-05-22T12:12:35.258Z,100605.48
2019-05-22T12:15:06.816Z,100610.24
2019-05-22T12:17:39.058Z,100614.05
2019-05-22T12:20:08.406Z,100608.03
2019-05-22T12:22:39.193Z,100603.80
2019-05-22T12:25:11.073Z,100594.64
2019-05-22T12:27:42.925Z,100589.77
2019-05-22T12:30:14.421Z,100598.75
2019-05-22T12:32:48.612Z,100584.53
2019-05-22T12:35:18.682Z,100591.99
2019-05-22T12:37:53.255Z,100604.98
2019-05-22T12:40:21.317Z,100607.64
2019-05-22T12:42:58.663Z,100635.09
2019-05-22T12:45:29.825Z,100636.28
2019-05-22T12:47:59.459Z,100636.45
2019-05-22T12:50:29.761Z,100636.54
2019-05-22T12:52:59.600Z,100637.01
2019-05-22T12:55:28.913Z,100644.45
2019-05-22T12:57:59.734Z,100628.02
2019-05-22T13:00:31.795Z,100634.09
2019-05-22T13:03:02.020Z,100625.30
2019-05-22T13:05:38.757Z,100615.31
2019-05-22T13:08:13.290Z,100620.91
2019-05-22T13:10:44.336Z,100613.54
2019-05-22T13:13:16.110Z,100619.21
2019-05-22T13:15:50.024Z,100615.48
2019-05-22T13:18:20.039Z,100609.67
2019-05-22T13:20:48.214Z,100610.68
2019-05-22T13:23:23.634Z,100606.95
2019-05-22T13:25:57.978Z,100605.31
2019-05-22T13:28:29.968Z,100603.11
2019-05-22T13:30:59.029Z,100595.23
2019-05-22T13:33:29.154Z,100584.39
2019-05-22T13:35:59.909Z,100574.53
2019-05-22T13:38:29.995Z,100574.41
2019-05-22T13:40:59.490Z,100571.69
2019-05-22T13:43:31.902Z,100566.37
2019-05-22T13:46:04.834Z,100569.42
2019-05-22T13:48:34.872Z,100572.09
2019-05-22T13:51:10.868Z,100566.45
2019-05-22T13:53:38.072Z,100573.90
2019-05-22T13:56:08.949Z,100557.69
2019-05-22T13:58:42.858Z,100576.50
2019-05-22T14:01:13.798Z,100558.39
2019-05-22T14:03:51.573Z,100551.84
2019-05-22T14:06:26.715Z,100544.51
2019-05-22T14:09:01.031Z,100563.30
2019-05-22T14:11:37.068Z,100579.09
2019-05-22T14:14:05.977Z,100582.64
2019-05-22T14:16:48.153Z,100583.23
2019-05-22T14:19:06.803Z,100583.28
2019-05-22T14:21:51.202Z,100585.48
2019-05-22T14:24:16.799Z,100561.49
2019-05-22T14:26:46.658Z,100568.83
2019-05-22T14:29:15.596Z,100567.59
2019-05-22T14:31:46.341Z,100573.91
2019-05-22T14:34:15.724Z,100566.00
2019-05-22T14:36:53.827Z,100548.80
2019-05-22T14:39:23.326Z,100549.84
2019-05-22T14:41:54.984Z,100538.66
2019-05-22T14:44:26.045Z,100531.53
2019-05-22T14:46:55.221Z,100541.36
2019-05-22T14:49:24.410Z,100533.42
2019-05-22T14:51:54.860Z,100538.43
2019-05-22T14:54:23.996Z,100542.91
2019-05-22T14:56:55.370Z,100541.78
2019-05-22T14:59:22.160Z,100539.34
2019-05-22T15:01:51.584Z,100539.11
2019-05-22T15:04:20.777Z,100543.67
2019-05-22T15:06:53.094Z,100552.44
2019-05-22T15:09:25.067Z,100559.48
2019-05-22T15:11:55.234Z,100564.48
2019-05-22T15:14:31.065Z,100578.25
2019-05-22T15:17:02.750Z,100572.57
2019-05-22T15:19:35.610Z,100576.36
2019-05-22T15:22:04.796Z,100582.52
2019-05-22T15:24:36.445Z,100584.98
2019-05-22T15:27:08.014Z,100572.16
2019-05-22T15:29:37.907Z,100571.23
2019-05-22T15:32:09.065Z,100568.11
2019-05-22T15:34:40.004Z,100566.50
2019-05-22T15:37:08.298Z,100568.33
2019-05-22T15:39:41.363Z,100567.30
2019-05-22T15:42:12.608Z,100565.87
2019-05-22T15:44:44.397Z,100562.61
2019-05-22T15:47:14.706Z,100567.23
2019-05-22T15:49:44.641Z,100574.89
2019-05-22T15:52:14.097Z,100570.41
2019-05-22T15:54:43.499Z,100584.86
2019-05-22T15:57:13.419Z,100586.55
2019-05-22T15:59:45.463Z,100578.63
2019-05-22T16:02:16.174Z,100576.80
2019-05-22T16:04:48.308Z,100580.66
2019-05-22T16:07:17.607Z,100579.67
2019-05-22T16:09:48.579Z,100580.36
2019-05-22T16:12:17.960Z,100576.08
2019-05-22T16:14:48.863Z,100570.55
2019-05-22T16:17:18.530Z,100566.48
2019-05-22T16:19:51.325Z,100573.70
2019-05-22T16:22:20.772Z,100573.02
2019-05-22T16:24:53.029Z,100559.14
2019-05-22T16:27:25.766Z,100568.55
2019-05-22T16:29:55.895Z,100566.92
2019-05-22T16:32:26.149Z,100565.96
2019-05-22T16:34:57.107Z,100557.84
2019-05-22T16:37:27.917Z,100560.42
2019-05-22T16:39:58.183Z,100561.86
2019-05-22T16:42:28.768Z,100562.93
2019-05-22T16:44:58.690Z,100558.09
2019-05-22T16:47:28.849Z,100569.17
2019-05-22T16:49:56.636Z,100560.88
2019-05-22T16:52:25.532Z,100558.86
2019-05-22T16:55:00.124Z,100560.13
2019-05-22T16:57:24.713Z,100561.59
2019-05-22T16:59:56.477Z,100561.59
2019-05-22T17:02:26.653Z,100573.03
2019-05-22T17:04:56.838Z,100568.45
2019-05-22T17:07:28.047Z,100565.20
2019-05-22T17:09:55.273Z,100565.70
2019-05-22T17:12:25.497Z,100571.45
2019-05-22T17:14:55.028Z,100574.86
2019-05-22T17:17:25.741Z,100569.78
2019-05-22T17:19:54.759Z,100564.09
2019-05-22T17:22:26.938Z,100562.29
2019-05-22T17:24:59.491Z,100565.09
2019-05-22T17:27:29.308Z,100563.33
2019-05-22T17:29:59.626Z,100558.35
2019-05-22T17:32:32.460Z,100551.12
2019-05-22T17:35:02.801Z,100551.18
2019-05-22T17:37:33.769Z,100557.82
2019-05-22T17:40:04.322Z,100560.38
2019-05-22T17:42:32.891Z,100548.77
2019-05-22T17:45:05.876Z,100551.66
2019-05-22T17:47:34.810Z,100533.43
2019-05-22T17:50:07.126Z,100541.59
2019-05-22T17:52:35.002Z,100544.20
2019-05-22T17:55:06.912Z,100543.24
2019-05-22T17:57:40.375Z,100566.83
2019-05-22T18:00:07.011Z,100561.51
2019-05-22T18:02:37.615Z,100579.98
2019-05-22T18:05:07.697Z,100580.56
2019-05-22T18:07:37.311Z,100578.55
2019-05-22T18:10:07.205Z,100571.16
2019-05-22T18:12:40.894Z,100574.37
2019-05-22T18:15:10.992Z,100580.62
2019-05-22T18:17:39.679Z,100592.02
2019-05-22T18:20:09.311Z,100601.36
2019-05-22T18:22:40.154Z,100611.94
2019-05-22T18:25:09.372Z,100605.47
2019-05-22T18:27:38.619Z,100602.69
2019-05-22T18:30:08.744Z,100609.55
2019-05-22T18:32:38.064Z,100615.88
2019-05-22T18:35:07.791Z,100614.46
2019-05-22T18:37:39.613Z,100613.34
2019-05-22T18:40:09.547Z,100612.70
2019-05-22T18:42:42.418Z,100617.36
2019-05-22T18:45:13.594Z,100620.50
2019-05-22T18:47:43.394Z,100631.94
2019-05-22T18:50:12.230Z,100623.80
2019-05-22T18:52:44.940Z,100627.95
2019-05-22T18:55:17.530Z,100624.08
2019-05-22T18:57:47.138Z,100625.89
2019-05-22T19:00:22.124Z,100629.66
2019-05-22T19:02:51.040Z,100630.42
2019-05-22T19:05:21.753Z,100625.58
2019-05-22T19:07:52.184Z,100632.03
2019-05-22T19:10:22.778Z,100628.15
2019-05-22T19:12:53.180Z,100627.97
2019-05-22T19:15:24.065Z,100621.73
2019-05-22T19:17:53.214Z,100629.16
2019-05-22T19:20:27.228Z,100627.05
2019-05-22T19:23:01.213Z,100629.36
2019-05-22T19:25:26.732Z,100627.57
2019-05-22T19:27:55.310Z,100628.03
2019-05-22T19:30:25.920Z,100635.72
2019-05-22T19:32:56.467Z,100639.27
2019-05-22T19:35:25.190Z,100648.34
2019-05-22T19:37:57.784Z,100657.54
2019-05-22T19:40:34.834Z,100653.96
2019-05-22T19:43:05.976Z,100652.59
2019-05-22T19:45:38.110Z,100657.23
2019-05-22T19:48:09.267Z,100657.57
2019-05-22T19:50:41.177Z,100658.63
2019-05-22T19:53:18.609Z,100662.16
2019-05-22T19:55:41.778Z,100673.08
2019-05-22T19:58:10.528Z,100667.55
2019-05-22T20:00:43.702Z,100669.63
2019-05-22T20:03:11.895Z,100675.86
2019-05-22T20:05:43.222Z,100676.14
2019-05-22T20:08:14.323Z,100677.29
2019-05-22T20:10:45.230Z,100678.61
2019-05-22T20:13:13.885Z,100670.00
2019-05-22T20:15:46.005Z,100674.55
2019-05-22T20:18:15.812Z,100673.03
2019-05-22T20:20:47.890Z,100677.41
2019-05-22T20:23:34.529Z,100683.42
2019-05-22T20:25:52.842Z,100682.72
2019-05-22T20:28:22.729Z,100688.07
2019-05-22T20:30:51.554Z,100680.86
2019-05-22T20:33:26.886Z,100682.65
2019-05-22T20:35:52.499Z,100676.39
2019-05-22T20:38:21.385Z,100677.59
2019-05-22T20:40:51.550Z,100683.59
2019-05-22T20:43:21.419Z,100684.37
2019-05-22T20:45:50.875Z,100685.00
2019-05-22T20:48:24.008Z,100678.66
2019-05-22T20:50:54.231Z,100685.60
2019-05-22T20:53:23.624Z,100694.87
2019-05-22T20:55:55.238Z,100686.69
2019-05-22T20:58:24.162Z,100691.34
2019-05-22T21:00:52.752Z,100687.91
2019-05-22T21:03:22.310Z,100689.48
2019-05-22T21:05:53.152Z,100681.37
2019-05-22T21:08:29.570Z,100689.77
2019-05-22T21:11:00.102Z,100692.27
2019-05-22T21:13:28.801Z,100694.45
2019-05-22T21:15:56.882Z,100683.64
2019-05-22T21:18:30.785Z,100684.13
2019-05-22T21:21:05.924Z,100691.45
2019-05-22T21:23:33.838Z,100682.79
2019-05-22T21:26:03.358Z,100685.95
2019-05-22T21:28:35.112Z,100681.55
2019-05-22T21:31:04.743Z,100683.52
2019-05-22T21:33:37.740Z,100680.83
2019-05-22T21:36:08.173Z,100686.66
2019-05-22T21:38:39.299Z,100687.82
2019-05-22T21:41:31.231Z,100683.77
2019-05-22T21:44:04.802Z,100687.52
2019-05-22T21:46:34.355Z,100682.56
2019-05-22T21:49:04.765Z,100688.13
2019-05-22T21:51:34.266Z,100690.92
2019-05-22T21:54:05.327Z,100683.58
2019-05-22T21:56:35.714Z,100680.34
2019-05-22T21:59:04.626Z,100687.82
2019-05-22T22:01:36.771Z,100690.84
2019-05-22T22:04:15.399Z,100694.53
2019-05-22T22:06:45.007Z,100693.67
2019-05-22T22:09:16.766Z,100690.91
2019-05-22T22:11:48.012Z,100697.97
2019-05-22T22:14:18.233Z,100691.41
2019-05-22T22:17:06.172Z,100691.74
2019-05-22T22:19:15.569Z,100683.34
2019-05-22T22:21:45.964Z,100690.55
2019-05-22T22:24:18.261Z,100700.38
2019-05-22T22:26:48.942Z,100690.03
2019-05-22T22:29:16.506Z,100687.45
2019-05-22T22:31:45.782Z,100695.50
2019-05-22T22:34:28.947Z,100699.27
2019-05-22T22:37:07.251Z,100695.62
2019-05-22T22:39:38.690Z,100698.75
2019-05-22T22:42:09.093Z,100706.38
2019-05-22T22:44:41.090Z,100706.95
2019-05-22T22:47:17.030Z,100707.23
2019-05-22T22:49:44.151Z,100702.78
2019-05-22T22:52:15.001Z,100706.47
2019-05-22T22:54:46.984Z,100705.92
2019-05-22T22:57:19.244Z,100705.72
2019-05-22T22:59:49.677Z,100711.42
2019-05-22T23:02:18.895Z,100706.02
2019-05-22T23:04:50.408Z,100704.08
2019-05-22T23:07:23.318Z,100712.30
2019-05-22T23:09:51.823Z,100708.02
2019-05-22T23:12:30.514Z,100701.05
2019-05-22T23:15:03.601Z,100704.42
2019-05-22T23:17:36.904Z,100701.48
2019-05-22T23:20:05.770Z,100699.45
2019-05-22T23:22:33.839Z,100697.52
2019-05-22T23:25:10.892Z,100698.36
2019-05-22T23:27:40.115Z,100700.23
2019-05-22T23:30:11.997Z,100698.44
2019-05-22T23:32:43.908Z,100701.95
2019-05-22T23:35:16.191Z,100703.41
2019-05-22T23:37:45.407Z,100703.53
2019-05-22T23:40:19.646Z,100699.02
2019-05-22T23:42:57.142Z,100703.66
2019-05-22T23:45:27.973Z,100709.30
2019-05-22T23:48:04.307Z,100707.00
2019-05-22T23:50:33.250Z,100705.83
2019-05-22T23:53:02.243Z,100710.95
2019-05-22T23:55:33.977Z,100707.05
2019-05-22T23:58:02.330Z,100706.59
